Samus Swan — 9HA2333 — position and weather

sailwx.info

Track history (hours):
 
Tides and Currents Weather Stations Pressure Air Temp Water Temp Dewpoint Dewpoint Depression Visibility Wind Speed Wind Dir Waves Ship Positions

Samus Swan

Last reported at 2016-Aug-03 19:26 UTC. Time now 2016-Aug-25 09:46 UTC.
Position N 35°52' W 026°23'.
Warning: this ship's position is 21 days out of date.

Length 106 m; draft 6.6 m.

Type: Tanker. MMSI: 248363000.

Date/timePositionNaut miles runAvg speedWind from/ knotsBaromVisibWave heightAir tempDewpointWater temp
2016-Aug-03 19:26N 35°52' W 026°23'1010.9
2016-Aug-03 18:28N 35°53' W 026°10'1010.5
2016-Aug-03 17:33N 35°54' W 025°58'1110.6
2016-Aug-03 16:33N 35°55' W 025°45'1010.3
2016-Aug-03 15:33N 35°56' W 025°32'1010.3
2016-Aug-03 14:33N 35°57' W 025°20'1110.7
2016-Aug-03 13:33N 35°59' W 025°07'1110.7
2016-Aug-03 12:33N 36°01' W 024°54'3 3.4
2016-Aug-03 11:32N 36°02' W 024°50'0 0.2
2016-Aug-03 10:32N 36°02' W 024°50'2 2.1
2016-Aug-03 09:34N 36°00' W 024°48'1110.9
2016-Aug-03 08:34N 36°01' W 024°34'1111.2
2016-Aug-03 07:33N 36°02' W 024°21'1111.4
2016-Aug-03 06:34N 36°03' W 024°07'2211.2
2016-Aug-03 04:33N 36°06' W 023°39'1311.1
2016-Aug-03 03:24N 36°07' W 023°23'  
2016-Jul-31 00:15N 36°01' W 006°41'5010.3
2016-Jul-30 19:21N 35°58' W 005°39'7 8.8
2016-Jul-30 18:33N 35°59' W 005°30'7 6.6
2016-Jul-30 17:33N 35°58' W 005°22'5 4.9
2016-Jul-30 16:34N 35°54' W 005°19'0 0.0
2016-Jul-30 15:34N 35°54' W 005°19'0 0.0
2016-Jul-30 14:34N 35°54' W 005°19'0 0.0
2016-Jul-30 13:34N 35°54' W 005°19'0 0.0
2016-Jul-30 12:34N 35°54' W 005°19'1 0.5
2016-Jul-30 11:34N 35°54' W 005°19'18810.3
2016-Jul-29 17:19N 36°34' W 001°31'3411.8
2016-Jul-29 14:28N 36°40' W 000°49'1111.5
2016-Jul-29 13:33N 36°41' W 000°36'1211.9
2016-Jul-29 12:33N 36°44' W 000°21'1111.3
2016-Jul-29 11:33N 36°45' W 000°07'1110.9
2016-Jul-29 10:32N 36°47' E 000°06'1111.3
2016-Jul-29 09:32N 36°48' E 000°20'1211.8
2016-Jul-29 08:33N 36°50' E 000°35'1211.7
2016-Jul-29 07:33N 36°52' E 000°49'1211.7
2016-Jul-29 06:33N 36°54' E 001°04'1111.0
2016-Jul-29 05:33N 36°56' E 001°17'1111.0
2016-Jul-29 04:33N 36°57' E 001°31'1111.1
2016-Jul-29 03:33N 36°59' E 001°44'1111.1
2016-Jul-29 02:33N 37°01' E 001°58'1111.2
2016-Jul-29 01:33N 37°03' E 002°12'1211.6
2016-Jul-29 00:33N 37°05' E 002°26'1111.4
2016-Jul-28 23:33N 37°06' E 002°41'1211.6
2016-Jul-28 22:32N 37°08' E 002°55'1211.5
2016-Jul-28 21:29N 37°10' E 003°10'1011.2
2016-Jul-28 20:33N 37°12' E 003°23'1110.9
2016-Jul-28 19:33N 37°14' E 003°36'1111.1
2016-Jul-28 18:33N 37°15' E 003°50'1111.3
2016-Jul-28 17:33N 37°17' E 004°04'1211.6
2016-Jul-28 16:32N 37°19' E 004°19'19111.7
2016-Jul-28 00:11N 37°49' E 008°17'812.1
2016-Jul-27 23:33N 37°50' E 008°27'1311.7
2016-Jul-27 22:25N 37°52' E 008°43'1011.3
2016-Jul-27 21:33N 37°53' E 008°56'1111.0
2016-Jul-27 20:33N 37°52' E 009°10'1111.0
2016-Jul-27 19:33N 37°50' E 009°23'1110.7
2016-Jul-27 18:33N 37°49' E 009°37'2110.2
2016-Jul-27 16:31N 37°45' E 010°03'11510.5
2016-Jul-27 05:33N 37°09' E 012°20'1111.1
2016-Jul-27 04:32N 37°04' E 012°33'1111.4
2016-Jul-27 03:33N 36°59' E 012°45'1211.5
2016-Jul-27 02:33N 36°55' E 012°59'1111.4
2016-Jul-27 01:33N 36°52' E 013°12'1110.9
2016-Jul-27 00:33N 36°48' E 013°25'1110.8
2016-Jul-26 23:33N 36°44' E 013°38'1110.7
2016-Jul-26 22:33N 36°41' E 013°50'1110.7
2016-Jul-26 21:33N 36°37' E 014°02'1111.3
2016-Jul-26 20:33N 36°33' E 014°16'1211.5
2016-Jul-26 19:31N 36°30' E 014°30'3611.2
2016-Jul-26 16:20N 36°33' E 015°14'  
Track history (hours):
 
Tides and Currents Weather Stations Pressure Air Temp Water Temp Dewpoint Dewpoint Depression Visibility Wind Speed Wind Dir Waves Ship Positions

Samus Swan

Last reported at 2016-Aug-03 19:26 UTC. Time now 2016-Aug-25 09:46 UTC.
Position N 35°52' W 026°23'.
Warning: this ship's position is 21 days out of date.

Length 106 m; draft 6.6 m.

Type: Tanker. MMSI: 248363000.

Date/timePositionNaut miles runAvg speedWind from/ knotsBaromVisibWave heightAir tempDewpointWater temp
2016-Aug-03 19:26N 35°52' W 026°23'1010.9
2016-Aug-03 18:28N 35°53' W 026°10'1010.5
2016-Aug-03 17:33N 35°54' W 025°58'1110.6
2016-Aug-03 16:33N 35°55' W 025°45'1010.3
2016-Aug-03 15:33N 35°56' W 025°32'1010.3
2016-Aug-03 14:33N 35°57' W 025°20'1110.7
2016-Aug-03 13:33N 35°59' W 025°07'1110.7
2016-Aug-03 12:33N 36°01' W 024°54'3 3.4
2016-Aug-03 11:32N 36°02' W 024°50'0 0.2
2016-Aug-03 10:32N 36°02' W 024°50'2 2.1
2016-Aug-03 09:34N 36°00' W 024°48'1110.9
2016-Aug-03 08:34N 36°01' W 024°34'1111.2
2016-Aug-03 07:33N 36°02' W 024°21'1111.4
2016-Aug-03 06:34N 36°03' W 024°07'2211.2
2016-Aug-03 04:33N 36°06' W 023°39'1311.1
2016-Aug-03 03:24N 36°07' W 023°23'  
2016-Jul-31 00:15N 36°01' W 006°41'5010.3
2016-Jul-30 19:21N 35°58' W 005°39'7 8.8
2016-Jul-30 18:33N 35°59' W 005°30'7 6.6
2016-Jul-30 17:33N 35°58' W 005°22'5 4.9
2016-Jul-30 16:34N 35°54' W 005°19'0 0.0
2016-Jul-30 15:34N 35°54' W 005°19'0 0.0
2016-Jul-30 14:34N 35°54' W 005°19'0 0.0
2016-Jul-30 13:34N 35°54' W 005°19'0 0.0
2016-Jul-30 12:34N 35°54' W 005°19'1 0.5
2016-Jul-30 11:34N 35°54' W 005°19'18810.3
2016-Jul-29 17:19N 36°34' W 001°31'3411.8
2016-Jul-29 14:28N 36°40' W 000°49'1111.5
2016-Jul-29 13:33N 36°41' W 000°36'1211.9
2016-Jul-29 12:33N 36°44' W 000°21'1111.3
2016-Jul-29 11:33N 36°45' W 000°07'1110.9
2016-Jul-29 10:32N 36°47' E 000°06'1111.3
2016-Jul-29 09:32N 36°48' E 000°20'1211.8
2016-Jul-29 08:33N 36°50' E 000°35'1211.7
2016-Jul-29 07:33N 36°52' E 000°49'1211.7
2016-Jul-29 06:33N 36°54' E 001°04'1111.0
2016-Jul-29 05:33N 36°56' E 001°17'1111.0
2016-Jul-29 04:33N 36°57' E 001°31'1111.1
2016-Jul-29 03:33N 36°59' E 001°44'1111.1
2016-Jul-29 02:33N 37°01' E 001°58'1111.2
2016-Jul-29 01:33N 37°03' E 002°12'1211.6
2016-Jul-29 00:33N 37°05' E 002°26'1111.4
2016-Jul-28 23:33N 37°06' E 002°41'1211.6
2016-Jul-28 22:32N 37°08' E 002°55'1211.5
2016-Jul-28 21:29N 37°10' E 003°10'1011.2
2016-Jul-28 20:33N 37°12' E 003°23'1110.9
2016-Jul-28 19:33N 37°14' E 003°36'1111.1
2016-Jul-28 18:33N 37°15' E 003°50'1111.3
2016-Jul-28 17:33N 37°17' E 004°04'1211.6
2016-Jul-28 16:32N 37°19' E 004°19'19111.7
2016-Jul-28 00:11N 37°49' E 008°17'812.1
2016-Jul-27 23:33N 37°50' E 008°27'1311.7
2016-Jul-27 22:25N 37°52' E 008°43'1011.3
2016-Jul-27 21:33N 37°53' E 008°56'1111.0
2016-Jul-27 20:33N 37°52' E 009°10'1111.0
2016-Jul-27 19:33N 37°50' E 009°23'1110.7
2016-Jul-27 18:33N 37°49' E 009°37'2110.2
2016-Jul-27 16:31N 37°45' E 010°03'11510.5
2016-Jul-27 05:33N 37°09' E 012°20'1111.1
2016-Jul-27 04:32N 37°04' E 012°33'1111.4
2016-Jul-27 03:33N 36°59' E 012°45'1211.5
2016-Jul-27 02:33N 36°55' E 012°59'1111.4
2016-Jul-27 01:33N 36°52' E 013°12'1110.9
2016-Jul-27 00:33N 36°48' E 013°25'1110.8
2016-Jul-26 23:33N 36°44' E 013°38'1110.7
2016-Jul-26 22:33N 36°41' E 013°50'1110.7
2016-Jul-26 21:33N 36°37' E 014°02'1111.3
2016-Jul-26 20:33N 36°33' E 014°16'1211.5
2016-Jul-26 19:31N 36°30' E 014°30'3611.2
2016-Jul-26 16:20N 36°33' E 015°14'  

Dump ship's entire track history